Saad Al-Shammari

Olheiro - Al-Ahli
20 Fev 2028
Domingo
Processo

Personalidade

Adaptabilidade (15) Ambição (15) Controvérsia (7) Lealdade (16) Pressão (5) Profissionalismo (20) Espírito Esportivo (7) Temperamento (13)

Perfil

Estilo de Treinamento Democrático
Licença Nacional A
Determinação 10
Gestão de Pessoas 9
Motivação 10
Disciplina 12
Satisfação no Trabalho
100%
Fadiga
0%
Função Olheiro
Salário 34.3K p/s
Contrato 14.03.2030

Desempenho

Comportamento Bom
Eficácia do Treinamento
39%
Desenvolvimento do Jogador
20%
Prevenção de Lesões
20%
Implementação Tática
20%

Eventos Recentes

Participou de uma reunião de recrutamento 14d atrás
Participou de uma reunião de recrutamento 21d atrás
Apresentou um dossiê à direção 21d atrás
Apresentou um dossiê à direção 28d atrás
Apresentou um dossiê à direção 28d atrás
Participando de desenvolvimento profissional 28d atrás
Participando de desenvolvimento profissional 28d atrás
Participando de desenvolvimento profissional 28d atrás

Monitorando agora

49
Jogador Clube Status Habilidade Confiança Observado Última observação Último voto
Marwan Touri Ohod Ativo 66 / 69 30% 1 / 1m 15.09.2027 -
Victor Lekhal Al-Riyadh Ativo 123 / 123 30% 1 / 1m 15.09.2027 -
Eliás Montiel Werder Bremen Ativo 125 / 134 40% 1 09.08.2027 -
Ángel Aguayo Sol de America Ativo 87 / 84 40% 1 09.08.2027 -
Edoardo Tartaglia Renate Ativo 91 / 112 40% 1 09.08.2027 -
Paulo Oliveira Al-Fayha Perdido 126 / 129 72% 1 12.07.2027 Aprovar
Dmitry Vorobjov Krasnodar Ativo 116 / 127 40% 1 21.05.2027 -
Nabil Alioui Al-Nassr Ativo 107 / 100 40% 1 20.05.2027 -
Alexandr Yushin Torpedo Moscow Ativo 111 / 108 40% 2 19.05.2027 -
Tamerlan Musaev CSKA Moscow Ativo 120 / 133 40% 1 19.05.2027 -
Joshua King Al-Khaleej Ativo 133 / 118 40% 3 15.05.2027 -
Ekain Orobengoa Real Sociedad Ativo 111 / 98 40% 3 11.05.2027 -
Joao Villamarín Hajer Ativo 103 / 117 40% 3 05.05.2027 -
Rocco Vata Watford Ativo 121 / 126 40% 2 30.04.2027 -
Moussa Koné Al-Ra'ed Ativo 116 / 111 40% 1 30.04.2027 -
Peter Olayinka Al-Wehda Ativo 125 / 131 40% 6 28.04.2027 -
Aaron Drinan Swindon Town Ativo 99 / 95 40% 2 27.04.2027 -
Martin Sekulić Ural Ativo 120 / 96 40% 3 26.04.2027 -
Lars Veldwijk Ativo 101 / 100 40% 3 25.04.2027 -
Youssef En-Nesyri Al-Ittihad Ativo 135 / 150 40% 5 24.04.2027 -
Wilfried Kanga Al-Fateh Ativo 113 / 112 40% 4 04.04.2027 -
Nikos Karelis Sliema Wanderers Ativo 113 / 114 40% 1 03.04.2027 -
Meshari Al-Nemer Al-Diriyah Ativo 100 / 94 40% 3 02.04.2027 -
Ivan Sergeev Dinamo Moscow Ativo 128 / 120 40% 2 29.03.2027 -
Musa Barrow Al-Khaleej Ativo 141 / 139 40% 4 23.03.2027 -
Zinho Gano Al-Ra'ed Ativo 111 / 118 40% 1 23.03.2027 -
Vladislav Yakovlev Volga Ativo 85 / 93 40% 1 16.03.2027 -
Yordy Reyna Rodina Ativo 101 / 97 40% 1 15.03.2027 -
Chinedu Geoffrey Krylya Sovetov Ativo 114 / 117 40% 1 10.03.2027 -
Aleksandar Pešić Fatih Karagumruk Ativo 114 / 128 40% 1 08.03.2027 -
Job Ochieng Real Sociedad Ativo 115 / 123 40% 1 06.03.2027 -
Slobodan Tedić Akron Ativo 99 / 95 40% 1 06.03.2027 -
Luciano Cariaga Hajer Ativo 96 / 110 40% 2 05.03.2027 -
Juan Manuel Boselli Krasnodar Ativo 128 / 117 40% 2 03.03.2027 -
Mohammad Alsalkhadi Damac Perdido 106 / 110 40% 1 27.02.2027 -
Elton Acolatse Al-Hazem Ativo 112 / 120 40% 2 17.02.2027 -
Haitham Asiri Al-Qadisiyah Ativo 115 / 108 40% 1 17.02.2027 -
Yakou Meïté Damac Perdido 109 / 112 40% 1 09.02.2027 Mais informações
Amur Kalmykov Spartak Kostroma Ativo 111 / 95 40% 1 01.02.2027 -
Ahmed Khodary Zamalek Ativo 99 / 85 40% 1 05.12.2026 -
Krešimir Radoš HNK Gorica Ativo 102 / 127 40% 1 04.12.2026 -
Jofre Torrents Ajax Ativo 127 / 147 40% 1 28.11.2026 -
Tomás Cruz Benfica Ativo 98 / 97 40% 1 28.11.2026 -
Karim Coulibaly RC Strasbourg Ativo 126 / 143 40% 1 25.11.2026 -
Juan Giménez Celta Ativo 109 / 104 40% 2 23.11.2026 -
Jan Bürger Gillingham Ativo 116 / 131 40% 1 23.11.2026 -
Filip Lissah Swansea City Ativo 108 / 125 40% 1 22.11.2026 -
Jaydan Kamason Manchester United Ativo 92 / 88 40% 1 05.10.2026 -
Marko Ristić ND Gorica Ativo 108 / 124 40% 1 05.10.2026 -